Sunday, September 23, 2018, 12:53 AM EDT
Back to Local

KITH, Ithaca, Ithaca Tompkins Regional Airport

Location: Ithaca, NY, United States Lat: 42.491
Local Time: 12:53 AM EDT ( 4:53 GMT) Lon: -76.458
Time Zone: US/Eastern Elev: 1099 ft

Show me the last for .
Show Coded

Time T Td Feel RH Dir Speed Gust Alt SLP Vis Weather Sky Remarks
2018-09-22 23:56 47 46 46 96 60° 3 - 30.26 30.27 10 CLR None
2018-09-22 22:56 47 46 46 96 60° 3 - 30.26 30.26 10 CLR None
2018-09-22 21:56 47 46 46 96 90° 3 - 30.27 30.28 10 CLR None
2018-09-22 20:56 49 47 48 92 120° 3 - 30.27 30.27 10 CLR None
2018-09-22 19:56 50 47 - 89 - Calm - 30.26 30.27 10 CLR 6-hr Min Temp (8pm): 50.0°F
6-hr Max Temp (8pm): 61.0°F
2018-09-22 18:56 53 47 - 79 10° 5 - 30.25 30.25 10 FEW031 None
2018-09-22 17:56 56 47 - 71 320° 7 - 30.25 30.25 10 SCT031 None
2018-09-22 16:56 57 47 - 68 290° 10 - 30.24 30.24 10 SCT031 None
2018-09-22 15:56 60 49 - 66 Variable 7 - 30.23 30.23 10 BKN031 None
2018-09-22 14:56 59 47 - 64 340° 10 - 30.24 30.23 10 BKN031 None
2018-09-22 13:56 57 47 - 68 360° 7 - 30.25 30.24 10 BKN028 6-hr Min Temp (2pm): 54.0°F
6-hr Max Temp (2pm): 59.0°F
2018-09-22 12:56 57 46 - 66 320° 9 - 30.26 30.25 10 BKN030 None
2018-09-22 11:56 56 46 - 69 330° 7 16 30.26 30.26 10 BKN026 OVC034 None
2018-09-22 10:56 56 48 - 74 320° 7 - 30.25 30.25 10 SCT019 BKN034 None
2018-09-22 09:56 55 49 - 79 330° 10 - 30.24 30.23 10 BKN016 OVC023 None
2018-09-22 08:56 54 50 - 86 330° 9 - 30.22 30.21 10 BKN016 OVC035 None
2018-09-22 07:56 54 48 - 80 320° 8 - 30.21 30.20 10 BKN035 24-hr Precip Total (8am): 0.13"
6-hr Min Temp (8am): 53.1°F
6-hr Max Temp (8am): 64.0°F
2018-09-22 06:56 54 47 - 77 310° 12 - 30.18 30.17 10 SCT029 OVC035 None
2018-09-22 06:30 54 46 - 76 310° 10 - 30.17 - 10 SCT039 None
2018-09-22 05:56 55 47 - 74 320° 12 18 30.15 30.14 10 SCT037 None
2018-09-22 04:56 56 50 - 80 340° 13 - 30.11 30.10 10 BKN036 None
2018-09-22 03:56 60 52 - 74 320° 18 - 30.07 30.06 10 SCT028 BKN033 BKN042 None
2018-09-22 02:56 62 54 - 74 300° 17 25 30.04 30.03 10 BKN031 OVC040 None
2018-09-22 01:56 64 58 - 80 320° 9 - 30.01 30.00 10 BKN039 6-hr Precip Total (2am): 0.13"
6-hr Min Temp (2am): 64.0°F
6-hr Max Temp (2am): 70.0°F
2018-09-22 01:22 64 59 - 82 330° 12 24 29.99 - 10 SCT026 BKN032 OVC042 None
2018-09-22 01:12 66 61 - 82 330° 16 22 29.98 - 10 BKN026 BKN035 OVC047 None
2018-09-22 00:56 68 64 - 87 300° 9 16 29.96 29.94 10 FEW027 BKN043 OVC050 24-hr Min Temp (1am): 66.0°F
24-hr Max Temp (1am): 75.0°F

Support USWX by starting your Amazon purchase here.